sensor_id;sensor_type;location;lat;lon;timestamp;temperature;humidity
2565;DHT22;1292;48.020;7.822;2024-02-26T06:47:36;9.00;99.90
2565;DHT22;1292;48.020;7.822;2024-02-26T06:50:04;9.00;99.90
2565;DHT22;1292;48.020;7.822;2024-02-26T06:52:31;9.00;99.90
2565;DHT22;1292;48.020;7.822;2024-02-26T06:54:58;9.10;99.90
2565;DHT22;1292;48.020;7.822;2024-02-26T06:57:25;9.10;99.90
2565;DHT22;1292;48.020;7.822;2024-02-26T06:59:52;9.00;99.90
2565;DHT22;1292;48.020;7.822;2024-02-26T07:02:19;9.00;99.90
2565;DHT22;1292;48.020;7.822;2024-02-26T07:04:50;9.00;99.90
2565;DHT22;1292;48.020;7.822;2024-02-26T07:07:18;9.00;99.90
2565;DHT22;1292;48.020;7.822;2024-02-26T07:09:45;9.00;99.90
2565;DHT22;1292;48.020;7.822;2024-02-26T07:12:13;9.00;99.90
2565;DHT22;1292;48.020;7.822;2024-02-26T07:14:41;9.00;99.90
2565;DHT22;1292;48.020;7.822;2024-02-26T07:17:08;9.00;99.90
2565;DHT22;1292;48.020;7.822;2024-02-26T07:19:35;9.00;99.90
2565;DHT22;1292;48.020;7.822;2024-02-26T07:22:03;9.10;99.90
2565;DHT22;1292;48.020;7.822;2024-02-26T07:24:30;9.10;99.90
2565;DHT22;1292;48.020;7.822;2024-02-26T07:26:57;9.10;99.90
2565;DHT22;1292;48.020;7.822;2024-02-26T07:29:24;9.10;99.90
2565;DHT22;1292;48.020;7.822;2024-02-26T07:31:51;9.10;99.90
2565;DHT22;1292;48.020;7.822;2024-02-26T07:34:17;9.20;99.90
2565;DHT22;1292;48.020;7.822;2024-02-26T07:36:44;9.20;99.90
2565;DHT22;1292;48.020;7.822;2024-02-26T07:39:12;9.20;99.90
2565;DHT22;1292;48.020;7.822;2024-02-26T07:41:38;9.20;99.90
2565;DHT22;1292;48.020;7.822;2024-02-26T07:44:05;9.20;99.90
2565;DHT22;1292;48.020;7.822;2024-02-26T07:46:32;9.20;99.90
2565;DHT22;1292;48.020;7.822;2024-02-26T07:48:59;9.20;99.90
2565;DHT22;1292;48.020;7.822;2024-02-26T07:51:25;9.20;99.90
2565;DHT22;1292;48.020;7.822;2024-02-26T07:53:52;9.30;99.90
2565;DHT22;1292;48.020;7.822;2024-02-26T07:56:20;9.30;99.90
2565;DHT22;1292;48.020;7.822;2024-02-26T07:58:47;9.40;99.90
2565;DHT22;1292;48.020;7.822;2024-02-26T08:01:14;9.40;99.90
2565;DHT22;1292;48.020;7.822;2024-02-26T08:03:41;9.50;99.90
2565;DHT22;1292;48.020;7.822;2024-02-26T08:06:08;9.50;99.90
2565;DHT22;1292;48.020;7.822;2024-02-26T08:08:35;9.60;99.90
2565;DHT22;1292;48.020;7.822;2024-02-26T08:11:02;9.60;99.90
2565;DHT22;1292;48.020;7.822;2024-02-26T08:13:30;9.60;99.90
2565;DHT22;1292;48.020;7.822;2024-02-26T08:15:57;9.60;99.90
2565;DHT22;1292;48.020;7.822;2024-02-26T08:18:24;9.60;99.90
2565;DHT22;1292;48.020;7.822;2024-02-26T08:20:51;9.60;99.90
2565;DHT22;1292;48.020;7.822;2024-02-26T08:23:18;9.70;99.90
2565;DHT22;1292;48.020;7.822;2024-02-26T08:25:44;9.80;99.90
2565;DHT22;1292;48.020;7.822;2024-02-26T08:28:11;9.90;99.90
2565;DHT22;1292;48.020;7.822;2024-02-26T08:30:40;10.00;99.90
2565;DHT22;1292;48.020;7.822;2024-02-26T08:33:07;10.00;99.90
2565;DHT22;1292;48.020;7.822;2024-02-26T08:35:34;10.10;99.90
2565;DHT22;1292;48.020;7.822;2024-02-26T08:38:01;10.20;99.90
2565;DHT22;1292;48.020;7.822;2024-02-26T08:40:28;10.20;99.90
2565;DHT22;1292;48.020;7.822;2024-02-26T08:42:55;10.30;99.90
2565;DHT22;1292;48.020;7.822;2024-02-26T08:45:21;10.30;99.90
2565;DHT22;1292;48.020;7.822;2024-02-26T08:47:50;10.40;99.90
2565;DHT22;1292;48.020;7.822;2024-02-26T08:50:16;10.50;99.90
2565;DHT22;1292;48.020;7.822;2024-02-26T08:52:43;10.70;99.90
2565;DHT22;1292;48.020;7.822;2024-02-26T08:55:14;10.80;99.90
2565;DHT22;1292;48.020;7.822;2024-02-26T08:57:41;10.90;99.90
2565;DHT22;1292;48.020;7.822;2024-02-26T09:00:08;11.00;99.90
2565;DHT22;1292;48.020;7.822;2024-02-26T09:02:35;11.00;99.90
2565;DHT22;1292;48.020;7.822;2024-02-26T09:05:06;11.10;99.90
2565;DHT22;1292;48.020;7.822;2024-02-26T09:07:33;11.10;99.90
2565;DHT22;1292;48.020;7.822;2024-02-26T09:09:59;10.90;99.90
2565;DHT22;1292;48.020;7.822;2024-02-26T09:12:26;10.90;99.90
2565;DHT22;1292;48.020;7.822;2024-02-26T09:14:54;10.90;99.90
2565;DHT22;1292;48.020;7.822;2024-02-26T09:17:23;10.90;99.90
2565;DHT22;1292;48.020;7.822;2024-02-26T09:19:49;10.90;99.90
2565;DHT22;1292;48.020;7.822;2024-02-26T09:22:18;10.90;99.90
2565;DHT22;1292;48.020;7.822;2024-02-26T09:24:44;11.00;99.90
2565;DHT22;1292;48.020;7.822;2024-02-26T09:27:11;11.10;99.90
2565;DHT22;1292;48.020;7.822;2024-02-26T09:29:38;11.20;99.90
2565;DHT22;1292;48.020;7.822;2024-02-26T09:32:05;11.20;99.90
2565;DHT22;1292;48.020;7.822;2024-02-26T09:34:32;11.20;99.90
2565;DHT22;1292;48.020;7.822;2024-02-26T09:36:59;11.20;99.90
2565;DHT22;1292;48.020;7.822;2024-02-26T09:39:28;11.20;99.90
2565;DHT22;1292;48.020;7.822;2024-02-26T09:41:56;11.30;99.90
2565;DHT22;1292;48.020;7.822;2024-02-26T09:44:25;11.30;99.90
2565;DHT22;1292;48.020;7.822;2024-02-26T09:46:55;11.30;99.90
2565;DHT22;1292;48.020;7.822;2024-02-26T09:49:23;11.40;99.90
2565;DHT22;1292;48.020;7.822;2024-02-26T09:51:52;11.30;99.90
2565;DHT22;1292;48.020;7.822;2024-02-26T09:54:20;11.20;99.90
2565;DHT22;1292;48.020;7.822;2024-02-26T09:56:50;11.20;99.90
2565;DHT22;1292;48.020;7.822;2024-02-26T09:59:18;11.20;99.90
2565;DHT22;1292;48.020;7.822;2024-02-26T10:01:46;11.20;99.90
2565;DHT22;1292;48.020;7.822;2024-02-26T10:04:14;11.20;99.90
2565;DHT22;1292;48.020;7.822;2024-02-26T10:06:41;11.20;99.90
2565;DHT22;1292;48.020;7.822;2024-02-26T10:09:10;11.20;99.90
2565;DHT22;1292;48.020;7.822;2024-02-26T10:11:38;11.20;99.90
2565;DHT22;1292;48.020;7.822;2024-02-26T10:14:06;11.30;99.90
2565;DHT22;1292;48.020;7.822;2024-02-26T10:16:33;11.30;99.90
2565;DHT22;1292;48.020;7.822;2024-02-26T10:19:00;11.40;99.90
2565;DHT22;1292;48.020;7.822;2024-02-26T10:21:27;11.30;99.90
2565;DHT22;1292;48.020;7.822;2024-02-26T10:23:54;11.40;99.90
2565;DHT22;1292;48.020;7.822;2024-02-26T10:26:21;11.50;99.90
2565;DHT22;1292;48.020;7.822;2024-02-26T10:28:48;11.40;99.90
2565;DHT22;1292;48.020;7.822;2024-02-26T10:31:16;11.40;99.90
2565;DHT22;1292;48.020;7.822;2024-02-26T10:33:43;11.40;99.90
2565;DHT22;1292;48.020;7.822;2024-02-26T10:36:10;11.50;99.90
2565;DHT22;1292;48.020;7.822;2024-02-26T10:38:37;11.60;99.90
2565;DHT22;1292;48.020;7.822;2024-02-26T10:41:04;11.70;99.90
2565;DHT22;1292;48.020;7.822;2024-02-26T10:43:32;11.80;99.90
2565;DHT22;1292;48.020;7.822;2024-02-26T10:45:59;11.80;99.90
2565;DHT22;1292;48.020;7.822;2024-02-26T10:48:27;11.90;99.90
2565;DHT22;1292;48.020;7.822;2024-02-26T10:50:54;11.90;99.90
2565;DHT22;1292;48.020;7.822;2024-02-26T10:53:23;12.00;99.90
2565;DHT22;1292;48.020;7.822;2024-02-26T10:55:54;12.00;99.90
2565;DHT22;1292;48.020;7.822;2024-02-26T10:58:22;12.10;99.90
2565;DHT22;1292;48.020;7.822;2024-02-26T11:00:50;12.10;99.90
2565;DHT22;1292;48.020;7.822;2024-02-26T11:03:18;12.10;99.90
2565;DHT22;1292;48.020;7.822;2024-02-26T11:05:48;12.10;99.90
2565;DHT22;1292;48.020;7.822;2024-02-26T11:08:16;12.10;99.90
2565;DHT22;1292;48.020;7.822;2024-02-26T11:10:47;12.20;99.90
2565;DHT22;1292;48.020;7.822;2024-02-26T11:13:15;12.20;99.90
2565;DHT22;1292;48.020;7.822;2024-02-26T11:15:45;12.30;99.90
2565;DHT22;1292;48.020;7.822;2024-02-26T11:18:14;12.40;99.90
2565;DHT22;1292;48.020;7.822;2024-02-26T11:20:41;12.50;99.90
2565;DHT22;1292;48.020;7.822;2024-02-26T11:23:10;12.60;99.90
2565;DHT22;1292;48.020;7.822;2024-02-26T11:25:37;12.60;99.90
2565;DHT22;1292;48.020;7.822;2024-02-26T11:28:07;12.60;99.90
2565;DHT22;1292;48.020;7.822;2024-02-26T11:30:39;12.60;99.90
2565;DHT22;1292;48.020;7.822;2024-02-26T11:33:08;12.70;99.90
2565;DHT22;1292;48.020;7.822;2024-02-26T11:35:37;12.80;99.90
2565;DHT22;1292;48.020;7.822;2024-02-26T11:38:04;12.70;99.90
2565;DHT22;1292;48.020;7.822;2024-02-26T11:40:38;12.70;99.90
2565;DHT22;1292;48.020;7.822;2024-02-26T11:43:05;12.70;99.90
2565;DHT22;1292;48.020;7.822;2024-02-26T11:45:51;12.70;99.90
2565;DHT22;1292;48.020;7.822;2024-02-26T11:48:22;12.80;99.90
2565;DHT22;1292;48.020;7.822;2024-02-26T11:50:50;12.80;99.90
2565;DHT22;1292;48.020;7.822;2024-02-26T11:53:25;12.80;99.90
2565;DHT22;1292;48.020;7.822;2024-02-26T11:56:15;12.80;99.90
2565;DHT22;1292;48.020;7.822;2024-02-26T11:58:47;12.80;99.90
2565;DHT22;1292;48.020;7.822;2024-02-26T12:04:19;12.60;99.90
2565;DHT22;1292;48.020;7.822;2024-02-26T12:06:50;12.60;99.90
2565;DHT22;1292;48.020;7.822;2024-02-26T12:09:33;12.60;99.90
2565;DHT22;1292;48.020;7.822;2024-02-26T12:12:03;12.70;99.90
2565;DHT22;1292;48.020;7.822;2024-02-26T12:14:33;12.80;99.90
2565;DHT22;1292;48.020;7.822;2024-02-26T12:17:00;12.90;99.90
2565;DHT22;1292;48.020;7.822;2024-02-26T12:19:28;12.90;99.90
2565;DHT22;1292;48.020;7.822;2024-02-26T12:21:54;13.00;99.90
2565;DHT22;1292;48.020;7.822;2024-02-26T12:24:21;13.00;99.90
2565;DHT22;1292;48.020;7.822;2024-02-26T12:26:48;13.10;99.90
2565;DHT22;1292;48.020;7.822;2024-02-26T12:29:16;13.10;99.90
2565;DHT22;1292;48.020;7.822;2024-02-26T12:31:43;13.20;99.90
2565;DHT22;1292;48.020;7.822;2024-02-26T12:34:10;13.30;99.90
2565;DHT22;1292;48.020;7.822;2024-02-26T12:36:37;13.40;99.90
2565;DHT22;1292;48.020;7.822;2024-02-26T12:39:05;13.10;99.90
2565;DHT22;1292;48.020;7.822;2024-02-26T12:41:32;12.90;99.90
2565;DHT22;1292;48.020;7.822;2024-02-26T12:44:00;13.10;99.90
2565;DHT22;1292;48.020;7.822;2024-02-26T12:46:28;13.20;99.90
2565;DHT22;1292;48.020;7.822;2024-02-26T12:48:56;13.20;99.90
2565;DHT22;1292;48.020;7.822;2024-02-26T12:51:25;13.40;99.90
2565;DHT22;1292;48.020;7.822;2024-02-26T12:53:52;13.40;99.90
2565;DHT22;1292;48.020;7.822;2024-02-26T12:56:20;13.30;99.90
2565;DHT22;1292;48.020;7.822;2024-02-26T12:58:48;13.50;99.90
2565;DHT22;1292;48.020;7.822;2024-02-26T13:01:19;13.70;99.90
2565;DHT22;1292;48.020;7.822;2024-02-26T13:03:47;13.80;99.90
2565;DHT22;1292;48.020;7.822;2024-02-26T13:06:15;13.90;99.90
2565;DHT22;1292;48.020;7.822;2024-02-26T13:08:42;13.70;99.90
2565;DHT22;1292;48.020;7.822;2024-02-26T13:11:09;13.80;99.90
2565;DHT22;1292;48.020;7.822;2024-02-26T13:13:36;13.90;99.90
2565;DHT22;1292;48.020;7.822;2024-02-26T13:16:04;13.90;99.90
2565;DHT22;1292;48.020;7.822;2024-02-26T13:18:30;14.00;99.90
2565;DHT22;1292;48.020;7.822;2024-02-26T13:21:09;14.00;99.90
2565;DHT22;1292;48.020;7.822;2024-02-26T13:23:36;14.00;99.90
2565;DHT22;1292;48.020;7.822;2024-02-26T13:26:03;14.00;99.90
2565;DHT22;1292;48.020;7.822;2024-02-26T13:28:30;14.00;99.90
2565;DHT22;1292;48.020;7.822;2024-02-26T13:30:58;14.00;99.90
2565;DHT22;1292;48.020;7.822;2024-02-26T13:33:27;14.00;99.90
2565;DHT22;1292;48.020;7.822;2024-02-26T13:35:55;14.00;99.90
2565;DHT22;1292;48.020;7.822;2024-02-26T13:38:23;14.00;99.90
2565;DHT22;1292;48.020;7.822;2024-02-26T13:40:51;14.00;99.90
2565;DHT22;1292;48.020;7.822;2024-02-26T13:43:18;14.10;99.90
2565;DHT22;1292;48.020;7.822;2024-02-26T13:45:45;14.20;99.90
2565;DHT22;1292;48.020;7.822;2024-02-26T13:48:13;14.10;99.90
2565;DHT22;1292;48.020;7.822;2024-02-26T13:50:40;14.10;99.90
2565;DHT22;1292;48.020;7.822;2024-02-26T13:53:08;14.10;99.90
2565;DHT22;1292;48.020;7.822;2024-02-26T13:55:37;14.10;99.90
2565;DHT22;1292;48.020;7.822;2024-02-26T13:58:04;14.10;99.90
2565;DHT22;1292;48.020;7.822;2024-02-26T14:00:31;14.10;99.90
2565;DHT22;1292;48.020;7.822;2024-02-26T14:02:59;14.10;99.90
2565;DHT22;1292;48.020;7.822;2024-02-26T14:05:26;14.10;99.90
2565;DHT22;1292;48.020;7.822;2024-02-26T14:07:53;14.10;99.90
2565;DHT22;1292;48.020;7.822;2024-02-26T14:10:20;14.20;99.90
2565;DHT22;1292;48.020;7.822;2024-02-26T14:12:48;14.10;99.90
2565;DHT22;1292;48.020;7.822;2024-02-26T14:15:15;14.10;99.90
2565;DHT22;1292;48.020;7.822;2024-02-26T14:17:42;14.20;99.90
2565;DHT22;1292;48.020;7.822;2024-02-26T14:20:09;14.30;99.90
2565;DHT22;1292;48.020;7.822;2024-02-26T14:22:36;14.30;99.90
2565;DHT22;1292;48.020;7.822;2024-02-26T14:25:03;14.20;99.90
2565;DHT22;1292;48.020;7.822;2024-02-26T14:27:30;14.20;99.90
2565;DHT22;1292;48.020;7.822;2024-02-26T14:29:58;14.10;99.90
2565;DHT22;1292;48.020;7.822;2024-02-26T14:32:25;14.10;99.90
2565;DHT22;1292;48.020;7.822;2024-02-26T14:34:53;14.10;99.90
2565;DHT22;1292;48.020;7.822;2024-02-26T14:37:20;14.00;99.90
2565;DHT22;1292;48.020;7.822;2024-02-26T14:39:47;14.10;99.90
2565;DHT22;1292;48.020;7.822;2024-02-26T14:42:17;14.10;99.90
2565;DHT22;1292;48.020;7.822;2024-02-26T14:44:44;14.20;99.90
2565;DHT22;1292;48.020;7.822;2024-02-26T14:47:14;14.30;99.90
2565;DHT22;1292;48.020;7.822;2024-02-26T14:49:41;14.20;99.90
2565;DHT22;1292;48.020;7.822;2024-02-26T14:52:08;14.20;99.90
2565;DHT22;1292;48.020;7.822;2024-02-26T14:54:34;14.20;99.90
2565;DHT22;1292;48.020;7.822;2024-02-26T14:57:04;14.20;99.90
2565;DHT22;1292;48.020;7.822;2024-02-26T14:59:32;14.10;99.90
2565;DHT22;1292;48.020;7.822;2024-02-26T15:01:59;14.20;99.90
2565;DHT22;1292;48.020;7.822;2024-02-26T15:04:27;14.30;99.90
2565;DHT22;1292;48.020;7.822;2024-02-26T15:06:54;14.40;99.90
2565;DHT22;1292;48.020;7.822;2024-02-26T15:09:21;14.30;99.90
2565;DHT22;1292;48.020;7.822;2024-02-26T15:11:48;14.40;99.90
2565;DHT22;1292;48.020;7.822;2024-02-26T15:14:15;14.40;99.90
2565;DHT22;1292;48.020;7.822;2024-02-26T15:16:42;14.40;99.90
2565;DHT22;1292;48.020;7.822;2024-02-26T15:19:09;14.30;99.90
2565;DHT22;1292;48.020;7.822;2024-02-26T15:21:43;14.40;99.90
2565;DHT22;1292;48.020;7.822;2024-02-26T15:24:10;14.40;99.90
2565;DHT22;1292;48.020;7.822;2024-02-26T15:26:37;14.40;99.90
2565;DHT22;1292;48.020;7.822;2024-02-26T15:29:06;14.40;99.90
2565;DHT22;1292;48.020;7.822;2024-02-26T15:31:34;14.40;99.90
2565;DHT22;1292;48.020;7.822;2024-02-26T15:34:02;14.40;99.90
2565;DHT22;1292;48.020;7.822;2024-02-26T15:36:29;14.40;99.90
2565;DHT22;1292;48.020;7.822;2024-02-26T15:38:57;14.40;99.90
2565;DHT22;1292;48.020;7.822;2024-02-26T15:41:24;14.40;99.90
2565;DHT22;1292;48.020;7.822;2024-02-26T15:43:51;14.30;99.90
2565;DHT22;1292;48.020;7.822;2024-02-26T15:46:18;14.20;99.90
2565;DHT22;1292;48.020;7.822;2024-02-26T15:48:44;14.20;99.90
2565;DHT22;1292;48.020;7.822;2024-02-26T15:51:18;14.10;99.90
2565;DHT22;1292;48.020;7.822;2024-02-26T15:53:45;14.10;99.90
2565;DHT22;1292;48.020;7.822;2024-02-26T15:56:14;14.10;99.90
2565;DHT22;1292;48.020;7.822;2024-02-26T15:58:40;14.00;99.90
2565;DHT22;1292;48.020;7.822;2024-02-26T16:01:07;14.10;99.90
2565;DHT22;1292;48.020;7.822;2024-02-26T16:03:37;14.00;99.90
2565;DHT22;1292;48.020;7.822;2024-02-26T16:06:04;14.00;99.90
2565;DHT22;1292;48.020;7.822;2024-02-26T16:08:31;14.00;99.90
2565;DHT22;1292;48.020;7.822;2024-02-26T16:10:59;14.00;99.90
2565;DHT22;1292;48.020;7.822;2024-02-26T16:13:27;14.10;99.90
2565;DHT22;1292;48.020;7.822;2024-02-26T16:16:01;14.10;99.90
2565;DHT22;1292;48.020;7.822;2024-02-26T16:18:28;14.00;99.90
2565;DHT22;1292;48.020;7.822;2024-02-26T16:20:55;14.00;99.90
2565;DHT22;1292;48.020;7.822;2024-02-26T16:23:22;13.90;99.90
2565;DHT22;1292;48.020;7.822;2024-02-26T16:25:49;14.00;99.90
2565;DHT22;1292;48.020;7.822;2024-02-26T16:28:16;13.80;99.90
2565;DHT22;1292;48.020;7.822;2024-02-26T16:30:44;13.80;99.90
2565;DHT22;1292;48.020;7.822;2024-02-26T16:33:11;13.80;99.90
2565;DHT22;1292;48.020;7.822;2024-02-26T16:35:38;13.80;99.90
2565;DHT22;1292;48.020;7.822;2024-02-26T16:38:05;13.80;99.90
2565;DHT22;1292;48.020;7.822;2024-02-26T16:40:31;13.80;99.90
2565;DHT22;1292;48.020;7.822;2024-02-26T16:42:58;13.80;99.90
2565;DHT22;1292;48.020;7.822;2024-02-26T16:45:25;13.70;99.90
2565;DHT22;1292;48.020;7.822;2024-02-26T16:47:54;13.70;99.90
2565;DHT22;1292;48.020;7.822;2024-02-26T16:50:21;13.70;99.90
2565;DHT22;1292;48.020;7.822;2024-02-26T16:52:48;13.70;99.90
2565;DHT22;1292;48.020;7.822;2024-02-26T16:55:16;13.70;99.90
2565;DHT22;1292;48.020;7.822;2024-02-26T16:57:43;13.70;99.90
2565;DHT22;1292;48.020;7.822;2024-02-26T17:00:10;13.60;99.90
2565;DHT22;1292;48.020;7.822;2024-02-26T17:02:38;13.50;99.90
2565;DHT22;1292;48.020;7.822;2024-02-26T17:05:08;13.50;99.90
2565;DHT22;1292;48.020;7.822;2024-02-26T17:07:35;13.50;99.90
2565;DHT22;1292;48.020;7.822;2024-02-26T17:10:02;13.50;99.90
2565;DHT22;1292;48.020;7.822;2024-02-26T17:12:29;13.40;99.90
2565;DHT22;1292;48.020;7.822;2024-02-26T17:14:56;13.30;99.90
2565;DHT22;1292;48.020;7.822;2024-02-26T17:17:23;13.20;99.90
2565;DHT22;1292;48.020;7.822;2024-02-26T17:19:50;13.20;99.90
2565;DHT22;1292;48.020;7.822;2024-02-26T17:22:18;13.20;99.90
2565;DHT22;1292;48.020;7.822;2024-02-26T17:24:45;13.20;99.90
2565;DHT22;1292;48.020;7.822;2024-02-26T17:27:12;13.20;99.90
2565;DHT22;1292;48.020;7.822;2024-02-26T17:29:39;13.10;99.90
2565;DHT22;1292;48.020;7.822;2024-02-26T17:32:06;13.10;99.90
2565;DHT22;1292;48.020;7.822;2024-02-26T17:34:33;13.00;99.90
2565;DHT22;1292;48.020;7.822;2024-02-26T17:37:00;12.90;99.90
2565;DHT22;1292;48.020;7.822;2024-02-26T17:39:30;12.90;99.90
2565;DHT22;1292;48.020;7.822;2024-02-26T17:41:57;12.90;99.90
2565;DHT22;1292;48.020;7.822;2024-02-26T17:44:24;12.80;99.90
2565;DHT22;1292;48.020;7.822;2024-02-26T17:46:59;12.80;99.90
2565;DHT22;1292;48.020;7.822;2024-02-26T17:49:26;12.60;99.90
2565;DHT22;1292;48.020;7.822;2024-02-26T17:51:53;12.50;99.90
2565;DHT22;1292;48.020;7.822;2024-02-26T17:54:20;12.50;99.90
2565;DHT22;1292;48.020;7.822;2024-02-26T17:56:48;12.40;99.90
2565;DHT22;1292;48.020;7.822;2024-02-26T17:59:16;12.30;99.90
2565;DHT22;1292;48.020;7.822;2024-02-26T18:01:43;12.20;99.90
2565;DHT22;1292;48.020;7.822;2024-02-26T18:04:10;12.20;99.90
2565;DHT22;1292;48.020;7.822;2024-02-26T18:06:37;12.10;99.90
2565;DHT22;1292;48.020;7.822;2024-02-26T18:09:04;12.10;99.90
2565;DHT22;1292;48.020;7.822;2024-02-26T18:11:32;12.10;99.90
2565;DHT22;1292;48.020;7.822;2024-02-26T18:14:00;12.00;99.90
2565;DHT22;1292;48.020;7.822;2024-02-26T18:16:28;12.00;99.90
2565;DHT22;1292;48.020;7.822;2024-02-26T18:18:55;11.90;99.90
2565;DHT22;1292;48.020;7.822;2024-02-26T18:21:22;11.80;99.90
2565;DHT22;1292;48.020;7.822;2024-02-26T18:23:50;11.80;99.90
2565;DHT22;1292;48.020;7.822;2024-02-26T18:26:17;11.70;99.90
2565;DHT22;1292;48.020;7.822;2024-02-26T18:28:45;11.70;99.90
2565;DHT22;1292;48.020;7.822;2024-02-26T18:31:13;11.70;99.90
2565;DHT22;1292;48.020;7.822;2024-02-26T18:33:40;11.60;99.90
2565;DHT22;1292;48.020;7.822;2024-02-26T18:36:08;11.50;99.90
2565;DHT22;1292;48.020;7.822;2024-02-26T18:38:35;11.10;99.90
2565;DHT22;1292;48.020;7.822;2024-02-26T18:41:02;11.00;99.90
2565;DHT22;1292;48.020;7.822;2024-02-26T18:43:29;10.80;99.90
2565;DHT22;1292;48.020;7.822;2024-02-26T18:45:56;10.80;99.90
2565;DHT22;1292;48.020;7.822;2024-02-26T18:48:25;10.80;99.90
2565;DHT22;1292;48.020;7.822;2024-02-26T18:50:52;10.70;99.90
2565;DHT22;1292;48.020;7.822;2024-02-26T18:53:19;10.60;99.90
2565;DHT22;1292;48.020;7.822;2024-02-26T18:55:46;10.60;99.90
2565;DHT22;1292;48.020;7.822;2024-02-26T18:58:13;10.60;99.90
2565;DHT22;1292;48.020;7.822;2024-02-26T19:00:40;10.70;99.90
2565;DHT22;1292;48.020;7.822;2024-02-26T19:03:07;10.80;99.90
2565;DHT22;1292;48.020;7.822;2024-02-26T19:05:35;10.80;99.90
2565;DHT22;1292;48.020;7.822;2024-02-26T19:08:02;10.80;99.90
2565;DHT22;1292;48.020;7.822;2024-02-26T19:10:29;10.80;99.90
2565;DHT22;1292;48.020;7.822;2024-02-26T19:12:56;10.80;99.90
2565;DHT22;1292;48.020;7.822;2024-02-26T19:15:23;10.80;99.90
2565;DHT22;1292;48.020;7.822;2024-02-26T19:17:50;10.90;99.90
2565;DHT22;1292;48.020;7.822;2024-02-26T19:20:17;10.80;99.90
2565;DHT22;1292;48.020;7.822;2024-02-26T19:22:47;10.80;99.90
2565;DHT22;1292;48.020;7.822;2024-02-26T19:25:14;10.80;99.90
2565;DHT22;1292;48.020;7.822;2024-02-26T19:27:41;10.70;99.90
2565;DHT22;1292;48.020;7.822;2024-02-26T19:30:09;10.70;99.90
2565;DHT22;1292;48.020;7.822;2024-02-26T19:32:36;10.70;99.90
2565;DHT22;1292;48.020;7.822;2024-02-26T19:35:04;10.70;99.90
2565;DHT22;1292;48.020;7.822;2024-02-26T19:37:32;10.70;99.90
2565;DHT22;1292;48.020;7.822;2024-02-26T19:40:01;10.60;99.90
2565;DHT22;1292;48.020;7.822;2024-02-26T19:42:29;10.60;99.90
2565;DHT22;1292;48.020;7.822;2024-02-26T19:44:56;10.50;99.90
2565;DHT22;1292;48.020;7.822;2024-02-26T19:47:22;10.50;99.90
2565;DHT22;1292;48.020;7.822;2024-02-26T19:49:49;10.40;99.90
2565;DHT22;1292;48.020;7.822;2024-02-26T19:52:16;10.20;99.90
2565;DHT22;1292;48.020;7.822;2024-02-26T19:54:45;10.10;99.90
2565;DHT22;1292;48.020;7.822;2024-02-26T19:57:14;10.10;99.90
2565;DHT22;1292;48.020;7.822;2024-02-26T19:59:40;10.00;99.90
2565;DHT22;1292;48.020;7.822;2024-02-26T20:02:07;10.10;99.90
2565;DHT22;1292;48.020;7.822;2024-02-26T20:04:35;10.00;99.90
2565;DHT22;1292;48.020;7.822;2024-02-26T20:07:02;10.10;99.90
2565;DHT22;1292;48.020;7.822;2024-02-26T20:09:30;10.00;99.90
2565;DHT22;1292;48.020;7.822;2024-02-26T20:11:57;10.00;99.90
2565;DHT22;1292;48.020;7.822;2024-02-26T20:14:27;10.00;99.90
2565;DHT22;1292;48.020;7.822;2024-02-26T20:16:54;10.00;99.90
2565;DHT22;1292;48.020;7.822;2024-02-26T20:19:21;9.90;99.90
2565;DHT22;1292;48.020;7.822;2024-02-26T20:21:48;9.70;99.90
2565;DHT22;1292;48.020;7.822;2024-02-26T20:24:15;9.60;99.90
2565;DHT22;1292;48.020;7.822;2024-02-26T20:26:42;9.60;99.90
2565;DHT22;1292;48.020;7.822;2024-02-26T20:29:10;9.60;99.90
2565;DHT22;1292;48.020;7.822;2024-02-26T20:31:39;9.60;99.90
2565;DHT22;1292;48.020;7.822;2024-02-26T20:34:06;9.70;99.90
2565;DHT22;1292;48.020;7.822;2024-02-26T20:36:34;9.60;99.90
2565;DHT22;1292;48.020;7.822;2024-02-26T20:39:01;9.60;99.90
2565;DHT22;1292;48.020;7.822;2024-02-26T20:41:29;9.60;99.90
2565;DHT22;1292;48.020;7.822;2024-02-26T20:43:56;9.60;99.90
2565;DHT22;1292;48.020;7.822;2024-02-26T20:46:23;9.60;99.90
2565;DHT22;1292;48.020;7.822;2024-02-26T20:48:51;9.50;99.90
2565;DHT22;1292;48.020;7.822;2024-02-26T20:51:18;9.60;99.90
2565;DHT22;1292;48.020;7.822;2024-02-26T20:53:45;9.60;99.90
2565;DHT22;1292;48.020;7.822;2024-02-26T20:56:12;9.60;99.90
2565;DHT22;1292;48.020;7.822;2024-02-26T20:58:39;9.60;99.90
2565;DHT22;1292;48.020;7.822;2024-02-26T21:01:06;9.60;99.90
2565;DHT22;1292;48.020;7.822;2024-02-26T21:03:33;9.60;99.90
2565;DHT22;1292;48.020;7.822;2024-02-26T21:06:02;9.60;99.90
2565;DHT22;1292;48.020;7.822;2024-02-26T21:08:29;9.60;99.90
2565;DHT22;1292;48.020;7.822;2024-02-26T21:10:56;9.60;99.90
2565;DHT22;1292;48.020;7.822;2024-02-26T21:13:22;9.60;99.90
2565;DHT22;1292;48.020;7.822;2024-02-26T21:15:49;9.60;99.90
2565;DHT22;1292;48.020;7.822;2024-02-26T21:18:16;9.60;99.90
2565;DHT22;1292;48.020;7.822;2024-02-26T21:20:43;9.60;99.90
2565;DHT22;1292;48.020;7.822;2024-02-26T21:23:11;9.60;99.90
2565;DHT22;1292;48.020;7.822;2024-02-26T21:25:38;9.60;99.90
2565;DHT22;1292;48.020;7.822;2024-02-26T21:28:05;9.60;99.90
2565;DHT22;1292;48.020;7.822;2024-02-26T21:30:32;9.70;99.90
2565;DHT22;1292;48.020;7.822;2024-02-26T21:32:59;9.70;99.90
2565;DHT22;1292;48.020;7.822;2024-02-26T21:35:26;9.70;99.90
2565;DHT22;1292;48.020;7.822;2024-02-26T21:37:53;9.70;99.90
2565;DHT22;1292;48.020;7.822;2024-02-26T21:40:21;9.70;99.90
2565;DHT22;1292;48.020;7.822;2024-02-26T21:42:48;9.60;99.90
2565;DHT22;1292;48.020;7.822;2024-02-26T21:45:15;9.70;99.90
2565;DHT22;1292;48.020;7.822;2024-02-26T21:47:46;9.70;99.90
2565;DHT22;1292;48.020;7.822;2024-02-26T21:50:13;9.70;99.90
2565;DHT22;1292;48.020;7.822;2024-02-26T21:52:41;9.60;99.90
2565;DHT22;1292;48.020;7.822;2024-02-26T21:55:08;9.70;99.90
2565;DHT22;1292;48.020;7.822;2024-02-26T21:57:38;9.70;99.90
2565;DHT22;1292;48.020;7.822;2024-02-26T22:00:06;9.70;99.90
2565;DHT22;1292;48.020;7.822;2024-02-26T22:02:33;9.70;99.90
2565;DHT22;1292;48.020;7.822;2024-02-26T22:05:00;9.70;99.90
2565;DHT22;1292;48.020;7.822;2024-02-26T22:07:27;9.60;99.90
2565;DHT22;1292;48.020;7.822;2024-02-26T22:09:54;9.70;99.90
2565;DHT22;1292;48.020;7.822;2024-02-26T22:12:21;9.60;99.90
2565;DHT22;1292;48.020;7.822;2024-02-26T22:14:49;9.60;99.90
2565;DHT22;1292;48.020;7.822;2024-02-26T22:17:16;9.70;99.90
2565;DHT22;1292;48.020;7.822;2024-02-26T22:19:43;9.60;99.90
2565;DHT22;1292;48.020;7.822;2024-02-26T22:22:10;9.60;99.90
2565;DHT22;1292;48.020;7.822;2024-02-26T22:24:37;9.40;99.90
2565;DHT22;1292;48.020;7.822;2024-02-26T22:27:04;9.40;99.90
2565;DHT22;1292;48.020;7.822;2024-02-26T22:29:31;9.40;99.90
2565;DHT22;1292;48.020;7.822;2024-02-26T22:31:59;9.40;99.90
2565;DHT22;1292;48.020;7.822;2024-02-26T22:34:26;9.50;99.90
2565;DHT22;1292;48.020;7.822;2024-02-26T22:36:53;9.60;99.90
2565;DHT22;1292;48.020;7.822;2024-02-26T22:39:19;9.60;99.90
